Time;durP1;ratioP1;P1;durP2;ratioP2;P2;SDS_P1;SDS_P2;PMS_P1;PMS_P2;Temp;Humidity;BMP_temperature;BMP_pressure;BME280_temperature;BME280_humidity;BME280_pressure;Samples;Min_cycle;Max_cycle;Signal;HPM_P1;HPM_P2
2021/05/24 00:00:11;;;;;;;29.02;11.80;;;5.60;99.90;;;;;;5070752;28;20035;-80
2021/05/24 00:02:37;;;;;;;18.97;8.63;;;5.50;99.90;;;;;;5067272;28;20101;-80
2021/05/24 00:05:05;;;;;;;20.15;9.88;;;5.40;99.90;;;;;;5071129;28;20044;-81
2021/05/24 00:07:31;;;;;;;28.60;9.82;;;5.40;99.90;;;;;;5071529;28;20081;-81
2021/05/24 00:09:56;;;;;;;27.52;12.05;;;5.30;99.90;;;;;;5071277;28;20534;-81
2021/05/24 00:12:26;;;;;;;27.13;12.90;;;5.30;99.90;;;;;;5071242;28;20405;-81
2021/05/24 00:14:53;;;;;;;27.10;12.65;;;5.30;99.90;;;;;;5070093;28;20028;-81
2021/05/24 00:17:19;;;;;;;32.78;14.13;;;5.30;99.90;;;;;;5071227;28;20063;-81
2021/05/24 00:19:44;;;;;;;32.55;13.25;;;5.30;99.90;;;;;;5071367;28;20125;-81
2021/05/24 00:22:10;;;;;;;33.33;14.55;;;5.30;99.90;;;;;;5062620;28;20017;-81
2021/05/24 00:24:36;;;;;;;34.97;13.48;;;5.30;99.90;;;;;;5069400;28;20154;-80
2021/05/24 00:27:01;;;;;;;29.05;12.27;;;5.20;99.90;;;;;;5073284;28;20363;-81
2021/05/24 00:29:27;;;;;;;33.97;13.43;;;5.20;99.90;;;;;;5073180;28;20025;-81
2021/05/24 00:31:53;;;;;;;35.25;12.65;;;5.20;99.90;;;;;;5071870;28;20059;-81
2021/05/24 00:34:19;;;;;;;26.27;14.20;;;5.20;99.90;;;;;;5072078;28;20032;-81
2021/05/24 00:36:44;;;;;;;32.78;14.52;;;5.20;99.90;;;;;;5073857;28;20025;-81
2021/05/24 00:39:10;;;;;;;26.98;13.75;;;5.20;99.90;;;;;;5073908;28;20025;-81
2021/05/24 00:41:39;;;;;;;23.27;13.27;;;5.10;99.90;;;;;;5072418;28;20086;-81
2021/05/24 00:44:06;;;;;;;24.30;14.70;;;5.10;99.90;;;;;;5072604;28;20025;-80
2021/05/24 00:46:32;;;;;;;21.55;12.57;;;5.00;99.90;;;;;;5073443;28;20021;-81
2021/05/24 00:48:58;;;;;;;28.42;13.95;;;5.00;99.90;;;;;;5071835;28;20119;-81
2021/05/24 00:51:24;;;;;;;25.27;13.98;;;5.00;99.90;;;;;;5065224;28;20104;-81
2021/05/24 00:53:50;;;;;;;24.80;13.00;;;4.90;99.90;;;;;;5052128;28;20131;-81
2021/05/24 00:56:17;;;;;;;28.55;13.93;;;4.80;99.90;;;;;;5053568;28;20120;-81
2021/05/24 00:58:43;;;;;;;21.00;12.68;;;4.80;99.90;;;;;;5052209;28;20482;-80
2021/05/24 01:01:09;;;;;;;21.83;10.93;;;4.70;99.90;;;;;;5052066;28;20025;-81
2021/05/24 01:03:35;;;;;;;19.30;10.77;;;4.70;99.90;;;;;;5053369;28;20386;-81
2021/05/24 01:06:01;;;;;;;21.20;11.50;;;4.60;99.90;;;;;;5054351;28;20017;-81
2021/05/24 01:08:26;;;;;;;16.13;10.60;;;4.70;99.90;;;;;;5071986;28;20031;-81
2021/05/24 01:10:52;;;;;;;17.80;10.02;;;4.60;99.90;;;;;;5073423;28;20108;-81
2021/05/24 01:13:18;;;;;;;25.65;12.13;;;4.60;99.90;;;;;;5071527;28;20474;-80
2021/05/24 01:15:44;;;;;;;21.25;11.80;;;4.60;99.90;;;;;;5073224;28;20074;-81
2021/05/24 01:18:10;;;;;;;27.38;12.57;;;4.50;99.90;;;;;;5073243;28;20024;-80
2021/05/24 01:20:36;;;;;;;26.05;12.45;;;4.50;99.90;;;;;;5073100;28;20036;-80
2021/05/24 01:25:29;;;;;;;26.42;11.70;;;4.50;99.90;;;;;;5073050;28;20121;-80
2021/05/24 01:27:56;;;;;;;26.33;12.98;;;4.40;99.90;;;;;;5071598;28;20127;-80
2021/05/24 01:30:22;;;;;;;22.38;11.85;;;4.40;99.90;;;;;;5071842;28;20074;-81
2021/05/24 01:32:48;;;;;;;19.27;10.70;;;4.30;99.90;;;;;;5071539;28;20044;-80
2021/05/24 01:35:14;;;;;;;26.77;11.57;;;4.30;99.90;;;;;;5073101;28;20111;-80
2021/05/24 01:37:40;;;;;;;19.75;10.82;;;4.30;99.90;;;;;;5071565;28;20111;-80
2021/05/24 01:40:07;;;;;;;19.88;10.13;;;4.30;99.90;;;;;;5071570;28;20039;-80
2021/05/24 01:42:33;;;;;;;24.85;12.27;;;4.30;99.90;;;;;;5069918;28;20048;-80
2021/05/24 01:44:58;;;;;;;22.25;11.73;;;4.30;99.90;;;;;;5071638;28;20027;-80
2021/05/24 01:47:24;;;;;;;22.17;11.88;;;4.20;99.90;;;;;;5072975;28;20462;-80
2021/05/24 01:49:50;;;;;;;22.00;11.10;;;4.30;99.90;;;;;;5072687;28;20095;-80
2021/05/24 01:52:18;;;;;;;25.33;11.20;;;4.30;99.90;;;;;;5071572;28;20017;-80
2021/05/24 01:54:45;;;;;;;23.17;11.35;;;4.20;99.90;;;;;;5071603;28;20422;-80
2021/05/24 01:57:12;;;;;;;29.65;13.85;;;4.10;99.90;;;;;;5071401;28;20057;-80
2021/05/24 01:59:39;;;;;;;31.23;13.88;;;4.10;99.90;;;;;;5058554;28;20028;-80
2021/05/24 02:02:05;;;;;;;31.48;14.18;;;4.10;99.90;;;;;;5052522;28;20021;-80
2021/05/24 02:04:31;;;;;;;30.58;13.57;;;4.10;99.90;;;;;;5060345;28;20012;-80
2021/05/24 02:06:58;;;;;;;28.23;13.45;;;4.00;99.90;;;;;;5092982;28;20031;-80
2021/05/24 02:09:25;;;;;;;24.38;11.77;;;4.00;99.90;;;;;;5091329;28;20061;-81
2021/05/24 02:11:50;;;;;;;24.30;10.73;;;3.90;99.90;;;;;;5082392;28;20020;-81
2021/05/24 02:14:16;;;;;;;27.10;10.75;;;3.80;99.90;;;;;;5070585;28;20031;-81
2021/05/24 02:16:44;;;;;;;27.75;13.00;;;3.80;99.90;;;;;;5071340;28;20046;-80
2021/05/24 02:19:12;;;;;;;21.40;10.95;;;3.70;99.90;;;;;;5070852;28;20024;-80
2021/05/24 02:21:38;;;;;;;20.67;10.50;;;3.70;99.90;;;;;;5071212;28;20033;-81
2021/05/24 02:24:06;;;;;;;24.40;11.93;;;3.80;99.90;;;;;;5070852;28;20024;-81
2021/05/24 02:26:32;;;;;;;26.38;10.40;;;3.70;99.90;;;;;;5070493;28;20452;-80
2021/05/24 02:28:58;;;;;;;19.58;11.20;;;3.70;99.90;;;;;;5072435;28;20028;-81
2021/05/24 02:31:24;;;;;;;23.48;12.32;;;3.60;99.90;;;;;;5074698;28;20028;-80
2021/05/24 02:33:49;;;;;;;24.50;14.68;;;3.60;99.90;;;;;;5091178;28;20074;-80
2021/05/24 02:36:16;;;;;;;23.60;12.85;;;3.60;99.90;;;;;;5091378;28;20032;-80
2021/05/24 02:38:42;;;;;;;22.48;12.52;;;3.70;99.90;;;;;;5090986;28;20032;-80
2021/05/24 02:41:08;;;;;;;22.27;11.57;;;3.60;99.90;;;;;;5091278;28;20071;-80
2021/05/24 02:43:33;;;;;;;24.33;11.55;;;3.60;99.90;;;;;;5078721;28;20091;-80
2021/05/24 02:45:59;;;;;;;21.98;11.77;;;3.50;99.90;;;;;;5073892;28;20374;-80
2021/05/24 02:48:25;;;;;;;20.52;11.70;;;3.60;99.90;;;;;;5091177;28;20027;-80
2021/05/24 02:50:52;;;;;;;18.10;10.65;;;3.60;99.90;;;;;;5069807;28;20087;-81
2021/05/24 02:53:17;;;;;;;19.48;10.95;;;3.60;99.90;;;;;;5050776;28;20017;-81
2021/05/24 02:55:43;;;;;;;21.17;11.98;;;3.60;99.90;;;;;;5050808;28;20067;-81
2021/05/24 02:58:09;;;;;;;26.30;12.23;;;3.60;99.90;;;;;;5052230;28;20021;-81
2021/05/24 03:00:35;;;;;;;21.35;11.35;;;3.60;99.90;;;;;;5052066;28;20405;-81
2021/05/24 03:03:00;;;;;;;22.08;11.95;;;3.60;99.90;;;;;;5050842;28;20078;-81
2021/05/24 03:05:26;;;;;;;20.73;11.07;;;3.60;99.90;;;;;;5050914;28;20108;-81
2021/05/24 03:07:53;;;;;;;17.02;9.85;;;3.50;99.90;;;;;;5052299;28;20033;-81
2021/05/24 03:10:22;;;;;;;15.63;9.23;;;3.50;99.90;;;;;;5051341;28;20025;-80
2021/05/24 03:12:47;;;;;;;14.32;9.13;;;3.50;99.90;;;;;;5054956;28;20470;-80
2021/05/24 03:15:16;;;;;;;14.38;8.88;;;3.40;99.90;;;;;;5054217;28;20052;-81
2021/05/24 03:17:42;;;;;;;16.00;9.95;;;3.30;99.90;;;;;;5054065;28;20474;-81
2021/05/24 03:20:10;;;;;;;22.75;9.25;;;3.40;99.90;;;;;;5054254;28;20033;-81
2021/05/24 03:22:36;;;;;;;17.77;10.70;;;3.50;99.90;;;;;;5053957;28;20048;-81
2021/05/24 03:25:04;;;;;;;23.15;12.13;;;3.60;99.90;;;;;;5054075;28;20025;-81
2021/05/24 03:27:30;;;;;;;24.25;12.25;;;3.70;99.90;;;;;;5053950;28;20079;-81
2021/05/24 03:29:56;;;;;;;22.60;11.63;;;3.90;99.90;;;;;;5054121;28;20021;-81
2021/05/24 03:32:21;;;;;;;19.40;9.55;;;4.10;99.90;;;;;;5053896;28;20405;-81
2021/05/24 03:34:47;;;;;;;13.55;9.63;;;4.30;99.90;;;;;;5053821;28;20017;-81
2021/05/24 03:37:13;;;;;;;14.77;8.38;;;4.60;99.90;;;;;;5053879;28;20013;-81
2021/05/24 03:39:38;;;;;;;14.27;9.10;;;4.80;99.90;;;;;;5053694;28;20049;-81
2021/05/24 03:42:04;;;;;;;12.35;9.18;;;5.00;99.90;;;;;;5065696;28;20482;-81
2021/05/24 03:44:30;;;;;;;13.05;7.97;;;5.10;99.90;;;;;;5073757;28;20025;-81
2021/05/24 03:46:56;;;;;;;12.10;8.05;;;5.30;99.90;;;;;;5073640;28;20025;-81
2021/05/24 03:49:21;;;;;;;15.50;9.20;;;5.50;99.90;;;;;;5073521;28;20112;-81
2021/05/24 03:51:47;;;;;;;15.57;8.98;;;5.60;99.90;;;;;;5082951;28;20020;-81
2021/05/24 03:54:13;;;;;;;18.05;9.23;;;5.80;99.90;;;;;;5084407;28;20024;-81
2021/05/24 03:56:38;;;;;;;16.08;9.75;;;6.00;99.90;;;;;;5073213;28;20359;-81
2021/05/24 03:59:04;;;;;;;15.93;9.68;;;6.20;99.90;;;;;;5073301;28;20393;-82
2021/05/24 04:01:30;;;;;;;17.73;9.38;;;6.40;99.90;;;;;;5073354;28;20160;-81
2021/05/24 04:03:57;;;;;;;14.00;9.32;;;6.60;99.90;;;;;;5073343;28;20080;-81
2021/05/24 04:06:25;;;;;;;16.45;8.02;;;6.80;99.90;;;;;;5074878;28;20032;-81
2021/05/24 04:08:51;;;;;;;15.88;8.63;;;6.80;99.90;;;;;;5073331;28;20166;-81
2021/05/24 04:11:17;;;;;;;17.13;8.85;;;6.90;99.90;;;;;;5072563;28;20103;-81
2021/05/24 04:13:49;;;;;;;13.07;8.32;;;7.00;99.90;;;;;;5073082;28;20112;-82
2021/05/24 04:16:15;;;;;;;16.65;9.63;;;7.10;99.90;;;;;;5073345;28;20067;-81
2021/05/24 04:18:45;;;;;;;16.15;8.93;;;7.10;98.10;;;;;;5068846;28;20056;-81
2021/05/24 04:21:11;;;;;;;14.65;8.40;;;7.10;99.90;;;;;;5054311;28;20037;-81
2021/05/24 04:23:37;;;;;;;15.45;8.65;;;7.10;99.90;;;;;;5051951;28;20122;-82
2021/05/24 04:26:03;;;;;;;21.55;8.23;;;7.30;99.90;;;;;;5053026;28;20497;-81
2021/05/24 04:28:29;;;;;;;16.55;9.13;;;7.40;99.90;;;;;;5052952;28;20399;-81
2021/05/24 04:30:54;;;;;;;14.48;9.00;;;7.60;99.90;;;;;;5052840;28;20029;-82
2021/05/24 04:33:20;;;;;;;14.77;8.60;;;7.80;99.90;;;;;;5052681;28;20083;-82
2021/05/24 04:35:45;;;;;;;16.15;9.48;;;8.00;99.90;;;;;;5052852;28;20087;-82
2021/05/24 04:38:11;;;;;;;15.40;9.60;;;8.30;99.90;;;;;;5053885;28;20025;-82
2021/05/24 04:40:37;;;;;;;17.48;10.27;;;8.50;99.90;;;;;;5052612;28;20042;-82
2021/05/24 04:43:02;;;;;;;16.52;10.10;;;8.70;99.90;;;;;;5053745;28;20025;-82
2021/05/24 04:45:28;;;;;;;15.52;8.98;;;8.90;99.90;;;;;;5051969;28;20017;-82
2021/05/24 04:47:54;;;;;;;15.05;10.00;;;9.10;99.90;;;;;;5052532;28;20087;-82
2021/05/24 04:50:19;;;;;;;15.88;10.20;;;9.30;99.90;;;;;;5052499;28;20112;-82
2021/05/24 04:52:45;;;;;;;16.80;9.63;;;9.40;99.90;;;;;;5053885;28;20029;-82
2021/05/24 04:55:13;;;;;;;16.80;9.98;;;9.50;99.90;;;;;;5053800;28;20494;-82
2021/05/24 04:57:39;;;;;;;16.35;10.73;;;9.50;99.90;;;;;;5053575;28;20021;-82
2021/05/24 05:00:07;;;;;;;20.15;11.23;;;9.50;99.90;;;;;;5052227;28;20040;-82
2021/05/24 05:02:33;;;;;;;22.45;13.38;;;9.60;99.90;;;;;;5052378;28;20021;-82
2021/05/24 05:04:58;;;;;;;30.10;12.98;;;9.70;99.90;;;;;;5052293;28;20360;-82
2021/05/24 05:07:24;;;;;;;27.55;15.77;;;9.80;99.90;;;;;;5052036;28;20024;-82
2021/05/24 05:09:49;;;;;;;24.40;14.82;;;9.80;99.90;;;;;;5052199;28;20017;-82
2021/05/24 05:12:15;;;;;;;27.13;13.85;;;9.90;99.90;;;;;;5052024;28;20025;-82
2021/05/24 05:14:41;;;;;;;26.48;14.27;;;10.00;99.90;;;;;;5054022;28;20383;-82
2021/05/24 05:17:07;;;;;;;22.33;12.32;;;10.10;99.90;;;;;;5059805;28;20470;-81
2021/05/24 05:19:32;;;;;;;21.63;11.88;;;10.20;99.90;;;;;;5068223;28;20031;-82
2021/05/24 05:21:58;;;;;;;17.10;10.55;;;10.30;99.90;;;;;;5071195;28;20490;-83
2021/05/24 05:24:24;;;;;;;21.52;12.25;;;10.40;99.90;;;;;;5071690;28;20016;-81
2021/05/24 05:26:49;;;;;;;23.92;12.10;;;10.50;99.90;;;;;;5067060;28;20056;-81
2021/05/24 05:29:15;;;;;;;18.48;10.00;;;10.60;99.90;;;;;;5065769;28;20468;-82
2021/05/24 05:31:41;;;;;;;14.18;9.27;;;10.70;99.90;;;;;;5066079;28;20037;-82
2021/05/24 05:34:06;;;;;;;15.98;9.18;;;10.80;99.90;;;;;;5068577;28;20017;-82
2021/05/24 05:36:33;;;;;;;15.75;8.90;;;10.80;99.90;;;;;;5066470;28;20355;-81
2021/05/24 05:38:59;;;;;;;12.55;7.97;;;11.00;99.90;;;;;;5063155;28;20036;-81
2021/05/24 05:41:25;;;;;;;15.68;8.10;;;11.10;99.90;;;;;;5068462;28;20082;-82
2021/05/24 05:43:51;;;;;;;11.68;6.60;;;11.10;99.90;;;;;;5052607;28;20017;-81
2021/05/24 05:46:16;;;;;;;9.50;6.88;;;11.20;99.90;;;;;;5052400;28;20103;-82
2021/05/24 05:48:42;;;;;;;11.05;7.03;;;11.40;99.90;;;;;;5053370;28;20029;-82
2021/05/24 05:51:09;;;;;;;11.18;6.70;;;11.40;99.90;;;;;;5059825;28;20401;-81
2021/05/24 05:53:36;;;;;;;9.05;5.45;;;11.50;99.90;;;;;;5062996;28;20029;-82
2021/05/24 05:56:05;;;;;;;10.63;5.30;;;11.50;99.90;;;;;;5070181;28;20024;-81
2021/05/24 05:58:31;;;;;;;10.25;5.57;;;11.60;99.90;;;;;;5069678;28;20047;-81
2021/05/24 06:01:01;;;;;;;8.18;4.55;;;11.70;99.90;;;;;;5062443;28;20052;-79
2021/05/24 06:03:27;;;;;;;10.23;5.00;;;11.80;99.90;;;;;;5072410;28;20111;-79
2021/05/24 06:05:52;;;;;;;7.57;4.38;;;11.90;97.30;;;;;;5072532;28;20454;-79
2021/05/24 06:08:18;;;;;;;7.38;4.75;;;12.00;95.70;;;;;;5072231;28;20032;-79
2021/05/24 06:10:44;;;;;;;9.48;5.22;;;12.20;96.50;;;;;;5070826;28;20103;-79
2021/05/24 06:13:09;;;;;;;5.43;4.28;;;12.40;96.00;;;;;;5069318;28;20120;-77
2021/05/24 06:15:35;;;;;;;6.63;4.10;;;12.50;93.80;;;;;;5066423;28;20017;-78
2021/05/24 06:18:01;;;;;;;10.57;3.88;;;12.60;90.40;;;;;;5047587;28;20067;-77
2021/05/24 06:20:27;;;;;;;3.85;2.70;;;12.90;92.80;;;;;;5047286;28;20037;-77
2021/05/24 06:22:52;;;;;;;5.18;2.97;;;13.00;83.90;;;;;;5059430;28;20024;-77
2021/05/24 06:25:18;;;;;;;10.13;4.47;;;13.10;84.40;;;;;;5066631;28;20031;-77
2021/05/24 06:27:44;;;;;;;12.25;5.22;;;13.30;88.60;;;;;;5054407;28;20455;-78
2021/05/24 06:30:11;;;;;;;5.47;3.78;;;13.40;83.60;;;;;;5050808;28;20025;-78
2021/05/24 06:32:37;;;;;;;11.70;4.55;;;13.50;81.00;;;;;;5051765;28;20078;-77
2021/05/24 06:35:05;;;;;;;6.03;3.55;;;13.50;82.60;;;;;;5051008;28;20425;-78
2021/05/24 06:37:30;;;;;;;6.80;3.95;;;13.60;81.30;;;;;;5052030;28;20041;-78
2021/05/24 06:39:56;;;;;;;8.00;3.00;;;13.70;82.80;;;;;;5051500;28;20021;-77
2021/05/24 06:42:23;;;;;;;5.32;3.15;;;13.80;81.20;;;;;;5052150;28;20485;-77
2021/05/24 06:44:50;;;;;;;10.57;3.10;;;14.00;82.50;;;;;;5051012;28;20150;-78
2021/05/24 06:47:15;;;;;;;5.40;3.08;;;14.20;81.00;;;;;;5055806;28;20024;-79
2021/05/24 06:49:41;;;;;;;5.43;3.15;;;14.30;74.70;;;;;;5055583;28;20028;-79
2021/05/24 06:52:07;;;;;;;4.15;3.22;;;14.60;77.60;;;;;;5055826;28;20071;-78
2021/05/24 06:54:32;;;;;;;4.05;2.58;;;14.70;72.00;;;;;;5054233;28;20017;-78
2021/05/24 06:56:58;;;;;;;4.60;2.85;;;14.70;70.90;;;;;;5055752;28;20070;-78
2021/05/24 06:59:24;;;;;;;4.78;2.10;;;14.80;70.40;;;;;;5054515;28;20058;-78
2021/05/24 07:01:50;;;;;;;4.55;2.20;;;14.90;70.90;;;;;;5054292;28;20562;-78
2021/05/24 07:04:16;;;;;;;3.78;2.60;;;14.90;72.80;;;;;;5054218;28;20021;-78
2021/05/24 07:06:41;;;;;;;6.63;2.10;;;15.10;72.00;;;;;;5061377;28;20440;-78
2021/05/24 07:09:08;;;;;;;4.50;2.17;;;15.30;72.80;;;;;;5072257;28;20024;-79
2021/05/24 07:11:33;;;;;;;1.60;1.50;;;15.30;69.60;;;;;;5072389;28;20035;-78
2021/05/24 07:13:59;;;;;;;2.72;2.00;;;15.50;67.60;;;;;;5072417;28;20072;-78
2021/05/24 07:16:25;;;;;;;4.45;2.15;;;15.60;64.80;;;;;;5073750;28;20544;-78
2021/05/24 07:18:51;;;;;;;3.33;1.90;;;15.70;65.70;;;;;;5072468;28;20060;-78
2021/05/24 07:21:16;;;;;;;3.75;1.88;;;15.80;68.70;;;;;;5073222;28;20103;-78
2021/05/24 07:23:42;;;;;;;1.95;1.30;;;15.80;61.70;;;;;;5071752;28;20470;-78
2021/05/24 07:26:07;;;;;;;1.45;1.20;;;15.90;63.60;;;;;;5072432;28;20116;-78
2021/05/24 07:28:33;;;;;;;3.15;1.35;;;16.00;61.30;;;;;;5072012;28;20549;-78
2021/05/24 07:30:59;;;;;;;6.07;1.60;;;16.00;58.90;;;;;;5071784;28;20032;-78
2021/05/24 07:33:24;;;;;;;2.30;1.75;;;16.10;59.40;;;;;;5073398;28;20466;-78
2021/05/24 07:35:50;;;;;;;2.17;1.23;;;16.30;61.00;;;;;;5072094;28;20119;-79
2021/05/24 07:38:16;;;;;;;3.40;1.63;;;16.50;62.00;;;;;;5071717;28;20493;-78
2021/05/24 07:40:42;;;;;;;3.33;1.40;;;16.70;60.40;;;;;;5071059;28;20037;-79
2021/05/24 07:43:07;;;;;;;1.33;0.82;;;16.70;59.60;;;;;;5070905;28;20052;-78
2021/05/24 07:45:33;;;;;;;2.90;1.52;;;16.70;58.20;;;;;;5071883;28;20522;-78
2021/05/24 07:47:59;;;;;;;2.17;0.98;;;16.80;58.70;;;;;;5071826;28;20021;-79
2021/05/24 07:50:25;;;;;;;4.53;1.17;;;16.90;57.40;;;;;;5071713;28;20116;-78
2021/05/24 07:52:52;;;;;;;2.67;1.00;;;16.90;56.20;;;;;;5067172;28;20054;-81
2021/05/24 07:55:17;;;;;;;2.63;1.40;;;16.80;55.70;;;;;;5063661;28;20013;-80
2021/05/24 07:57:43;;;;;;;2.90;1.15;;;16.80;55.30;;;;;;5060401;28;20025;-78
2021/05/24 08:00:10;;;;;;;1.10;0.85;;;16.70;55.90;;;;;;5062367;28;20048;-79
2021/05/24 08:02:46;;;;;;;21.70;2.10;;;16.80;54.50;;;;;;5060520;28;20017;-78
2021/05/24 08:05:13;;;;;;;1.35;0.80;;;16.90;56.40;;;;;;5062981;28;20309;-78
2021/05/24 08:07:39;;;;;;;2.22;0.60;;;17.00;57.00;;;;;;5061919;28;20032;-79
2021/05/24 08:10:08;;;;;;;3.80;1.13;;;17.10;55.50;;;;;;5060648;28;20020;-79
2021/05/24 08:12:37;;;;;;;1.85;0.90;;;17.10;55.00;;;;;;5061927;28;20025;-79
2021/05/24 08:15:07;;;;;;;1.27;1.15;;;17.30;54.60;;;;;;5063748;28;20466;-78
2021/05/24 08:17:33;;;;;;;6.20;2.83;;;17.30;54.00;;;;;;5061261;28;20028;-78
2021/05/24 08:19:59;;;;;;;1.58;1.10;;;17.40;55.30;;;;;;5061935;28;20119;-79
2021/05/24 08:22:24;;;;;;;1.90;1.13;;;17.40;54.10;;;;;;5060973;28;20453;-78
2021/05/24 08:24:50;;;;;;;4.93;0.70;;;17.40;54.30;;;;;;5063556;28;20029;-80
2021/05/24 08:27:16;;;;;;;1.80;0.88;;;17.10;53.20;;;;;;5062899;28;20009;-79
2021/05/24 08:29:42;;;;;;;2.00;0.70;;;17.10;52.70;;;;;;5061957;28;20036;-80
2021/05/24 08:32:07;;;;;;;2.63;0.80;;;17.00;53.50;;;;;;5062357;28;20029;-79
2021/05/24 08:34:33;;;;;;;0.85;0.70;;;16.90;52.40;;;;;;5060822;28;20021;-79
2021/05/24 08:36:59;;;;;;;0.60;0.60;;;16.70;52.60;;;;;;5060586;28;20044;-80
2021/05/24 08:39:25;;;;;;;2.70;0.90;;;16.70;53.30;;;;;;5061912;28;20013;-79
2021/05/24 08:41:52;;;;;;;1.58;0.85;;;16.70;53.30;;;;;;5061732;28;20029;-79
2021/05/24 08:44:18;;;;;;;2.25;0.90;;;16.70;53.60;;;;;;5060894;28;20008;-79
2021/05/24 08:46:44;;;;;;;1.52;0.98;;;16.80;53.60;;;;;;5063455;28;20383;-79
2021/05/24 08:49:10;;;;;;;1.55;0.80;;;16.90;53.40;;;;;;5060593;28;20143;-79
2021/05/24 08:51:36;;;;;;;2.05;1.27;;;17.20;53.80;;;;;;5052264;28;20025;-80
2021/05/24 08:54:03;;;;;;;1.75;0.85;;;17.30;53.90;;;;;;5051304;28;20048;-78
2021/05/24 08:56:29;;;;;;;0.68;0.68;;;17.30;52.70;;;;;;5050325;28;20029;-77
2021/05/24 08:59:00;;;;;;;3.22;1.17;;;17.30;52.20;;;;;;5049525;28;20372;-78
2021/05/24 09:01:26;;;;;;;19.02;2.80;;;17.30;53.70;;;;;;5052008;28;20395;-78
2021/05/24 09:04:03;;;;;;;3.30;0.75;;;17.40;53.80;;;;;;5051801;28;20021;-77
2021/05/24 09:06:40;;;;;;;1.75;0.90;;;17.40;52.60;;;;;;5053932;28;20119;-79
2021/05/24 09:09:14;;;;;;;3.70;1.33;;;17.50;52.60;;;;;;5055080;28;20029;-78
2021/05/24 09:11:41;;;;;;;1.27;0.70;;;17.70;52.20;;;;;;5070019;28;20021;-77
2021/05/24 09:14:18;;;;;;;1.00;0.85;;;17.70;50.60;;;;;;5071459;28;20048;-78
2021/05/24 09:16:44;;;;;;;1.48;0.70;;;18.10;51.20;;;;;;5069919;28;20024;-78
2021/05/24 09:19:10;;;;;;;0.60;0.60;;;18.20;51.10;;;;;;5068992;28;20482;-78
2021/05/24 09:21:35;;;;;;;2.08;0.70;;;18.20;51.90;;;;;;5067836;28;20037;-79
2021/05/24 09:24:30;;;;;;;2.42;0.88;;;18.10;51.70;;;;;;5070076;28;20031;-78
2021/05/24 09:26:58;;;;;;;1.30;0.70;;;18.40;50.30;;;;;;5071428;28;20021;-78
2021/05/24 09:29:26;;;;;;;2.90;0.85;;;18.30;49.50;;;;;;5070810;28;20029;-78
2021/05/24 09:32:13;;;;;;;1.85;0.82;;;18.30;49.90;;;;;;5073061;28;20025;-78
2021/05/24 09:34:40;;;;;;;3.53;1.02;;;18.30;49.50;;;;;;5071820;28;20070;-78
2021/05/24 09:37:06;;;;;;;1.60;0.60;;;18.50;50.00;;;;;;5070656;28;20036;-78
2021/05/24 09:39:34;;;;;;;2.97;0.95;;;18.50;50.00;;;;;;5071259;28;20029;-78
2021/05/24 09:42:08;;;;;;;1.70;1.00;;;18.50;51.00;;;;;;5071322;28;20028;-78
2021/05/24 09:44:40;;;;;;;6.03;1.20;;;18.50;51.20;;;;;;5072846;28;20036;-78
2021/05/24 09:47:06;;;;;;;1.42;0.85;;;18.50;51.50;;;;;;5071586;28;20166;-78
2021/05/24 09:49:32;;;;;;;2.28;0.90;;;18.60;50.90;;;;;;5072757;28;20525;-78
2021/05/24 09:51:59;;;;;;;2.30;1.08;;;18.70;51.40;;;;;;5071096;28;20021;-78
2021/05/24 09:54:31;;;;;;;2.28;0.93;;;18.80;51.30;;;;;;5072595;28;20021;-78
2021/05/24 09:56:59;;;;;;;2.33;1.00;;;18.50;51.50;;;;;;5072866;28;20363;-78
2021/05/24 09:59:26;;;;;;;1.55;0.88;;;18.50;51.60;;;;;;5065814;28;20025;-78
2021/05/24 10:02:01;;;;;;;3.45;1.20;;;18.30;51.60;;;;;;5060655;28;20024;-78
2021/05/24 10:04:32;;;;;;;3.35;1.30;;;18.30;52.80;;;;;;5069604;28;20029;-78
2021/05/24 10:07:03;;;;;;;1.15;0.77;;;18.20;51.10;;;;;;5069992;28;20040;-77
2021/05/24 10:09:32;;;;;;;1.00;0.90;;;18.20;52.40;;;;;;5069463;28;20074;-78
2021/05/24 10:12:02;;;;;;;2.45;0.93;;;18.10;52.80;;;;;;5070739;28;20379;-78
2021/05/24 10:14:27;;;;;;;3.42;0.90;;;18.20;53.00;;;;;;5068999;28;20081;-78
2021/05/24 10:16:59;;;;;;;1.80;1.00;;;18.10;52.60;;;;;;5069205;28;20021;-79
2021/05/24 10:19:26;;;;;;;2.22;1.27;;;18.30;52.50;;;;;;5070407;28;20058;-78
2021/05/24 10:21:52;;;;;;;2.38;1.00;;;18.50;52.30;;;;;;5072829;28;20029;-78
2021/05/24 10:24:21;;;;;;;1.83;1.15;;;18.60;52.20;;;;;;5074329;28;20105;-78
2021/05/24 10:26:47;;;;;;;2.17;1.10;;;18.50;52.60;;;;;;5073820;28;20466;-78
2021/05/24 10:29:14;;;;;;;4.00;1.52;;;18.50;51.90;;;;;;5075177;28;20025;-78
2021/05/24 10:31:41;;;;;;;4.88;1.30;;;18.50;51.80;;;;;;5075145;28;20034;-78
2021/05/24 10:34:19;;;;;;;2.47;1.00;;;18.70;51.40;;;;;;5075155;28;20459;-75
2021/05/24 10:37:06;;;;;;;5.05;1.27;;;18.60;52.30;;;;;;5074552;28;20032;-75
2021/05/24 10:39:59;;;;;;;3.55;1.20;;;18.70;52.10;;;;;;5076077;28;20130;-75
2021/05/24 10:42:44;;;;;;;2.22;1.13;;;18.80;51.90;;;;;;5075311;28;20040;-75
2021/05/24 10:45:22;;;;;;;2.03;0.90;;;18.70;50.70;;;;;;5076208;28;20028;-75
2021/05/24 10:47:59;;;;;;;4.47;1.00;;;18.90;51.80;;;;;;5074921;28;20017;-76
2021/05/24 10:50:28;;;;;;;3.72;2.22;;;18.80;50.30;;;;;;5076105;28;20525;-75
2021/05/24 10:53:03;;;;;;;1.65;1.08;;;18.80;50.10;;;;;;5074383;28;20031;-75
2021/05/24 10:55:29;;;;;;;1.95;1.25;;;19.10;51.60;;;;;;5072007;28;20024;-75
2021/05/24 10:57:59;;;;;;;0.90;0.90;;;19.20;50.80;;;;;;5072771;28;20029;-75
2021/05/24 11:00:26;;;;;;;0.70;0.70;;;19.40;50.40;;;;;;5074214;28;20460;-75
2021/05/24 11:02:53;;;;;;;4.30;0.85;;;19.50;47.80;;;;;;5073918;28;20025;-75
2021/05/24 11:05:30;;;;;;;0.73;0.63;;;19.50;48.40;;;;;;5071039;28;20532;-75
2021/05/24 11:07:57;;;;;;;3.53;1.40;;;19.50;48.00;;;;;;5073023;28;20029;-75
2021/05/24 11:10:26;;;;;;;1.48;0.73;;;19.70;49.20;;;;;;5075700;28;20375;-76
2021/05/24 11:13:11;;;;;;;2.47;1.00;;;19.70;47.30;;;;;;5074370;28;20052;-74
2021/05/24 11:15:42;;;;;;;1.85;0.88;;;19.80;48.00;;;;;;5075730;28;20024;-74
2021/05/24 11:18:07;;;;;;;2.08;0.82;;;20.10;49.20;;;;;;5075536;28;20474;-73
2021/05/24 11:20:48;;;;;;;1.25;0.85;;;20.30;49.30;;;;;;5074971;28;20078;-75
2021/05/24 11:26:19;;;;;;;1.60;0.70;;;20.50;46.90;;;;;;5075784;28;20033;-74
2021/05/24 11:28:53;;;;;;;0.73;0.70;;;20.10;45.10;;;;;;5075353;28;20493;-74
2021/05/24 11:31:21;;;;;;;1.00;0.90;;;19.90;45.90;;;;;;5071056;28;20382;-73
2021/05/24 11:33:48;;;;;;;1.92;0.90;;;20.00;47.70;;;;;;5072750;28;20029;-73
2021/05/24 11:36:22;;;;;;;2.30;0.80;;;20.10;48.50;;;;;;5072856;28;20493;-74
2021/05/24 11:39:07;;;;;;;1.20;0.93;;;20.30;48.50;;;;;;5073367;28;20024;-74
2021/05/24 11:41:35;;;;;;;1.13;0.73;;;20.20;47.80;;;;;;5072977;28;20032;-74
2021/05/24 11:44:03;;;;;;;1.33;1.00;;;20.30;47.30;;;;;;5072980;28;20075;-74
2021/05/24 11:47:02;;;;;;;1.42;0.90;;;20.50;48.40;;;;;;5067858;28;20017;-74
2021/05/24 11:49:34;;;;;;;1.15;0.80;;;20.30;48.60;;;;;;5072039;28;20066;-74
2021/05/24 11:52:00;;;;;;;1.27;0.77;;;20.30;49.50;;;;;;5069938;28;20082;-74
2021/05/24 11:54:27;;;;;;;1.85;0.88;;;20.50;47.50;;;;;;5071309;28;20016;-74
2021/05/24 11:56:55;;;;;;;3.05;1.10;;;20.50;46.90;;;;;;5071740;28;20082;-74
2021/05/24 11:59:24;;;;;;;2.45;0.77;;;20.70;47.10;;;;;;5071612;28;20032;-74
2021/05/24 12:01:52;;;;;;;3.10;0.90;;;20.70;47.90;;;;;;5071671;28;20035;-74
2021/05/24 12:04:22;;;;;;;1.02;0.70;;;20.80;48.40;;;;;;5071321;28;20017;-74
2021/05/24 12:06:51;;;;;;;4.13;1.50;;;20.80;45.80;;;;;;5072528;28;20096;-73
2021/05/24 12:09:36;;;;;;;1.88;1.10;;;20.70;44.20;;;;;;5070691;28;20016;-74
2021/05/24 12:12:05;;;;;;;1.30;1.10;;;20.70;45.70;;;;;;5072303;28;20576;-74
2021/05/24 12:14:33;;;;;;;1.20;1.10;;;20.30;46.00;;;;;;5070622;28;20019;-74
2021/05/24 12:16:59;;;;;;;1.40;0.88;;;20.10;46.80;;;;;;5071412;28;20489;-74
2021/05/24 12:19:26;;;;;;;0.80;0.80;;;20.10;47.60;;;;;;5072503;28;20047;-74
2021/05/24 12:21:56;;;;;;;0.80;0.80;;;19.90;47.50;;;;;;5072391;28;20040;-75
2021/05/24 12:24:22;;;;;;;2.97;0.88;;;19.80;48.10;;;;;;5074622;28;20117;-74
2021/05/24 12:26:53;;;;;;;1.33;1.23;;;19.80;47.90;;;;;;5073026;28;20025;-74
2021/05/24 12:29:27;;;;;;;1.77;1.23;;;20.00;48.40;;;;;;5074237;28;20402;-74
2021/05/24 12:31:56;;;;;;;11.80;2.85;;;20.10;47.40;;;;;;5057893;28;20508;-74
2021/05/24 12:34:38;;;;;;;2.92;0.80;;;20.40;47.20;;;;;;5054064;28;20111;-74
2021/05/24 12:37:06;;;;;;;1.77;0.98;;;20.50;46.50;;;;;;5064101;28;20382;-74
2021/05/24 12:39:35;;;;;;;1.33;1.05;;;20.70;46.60;;;;;;5067742;28;20470;-74
2021/05/24 12:42:02;;;;;;;2.22;1.00;;;20.70;46.90;;;;;;5058949;28;20421;-74
2021/05/24 12:44:28;;;;;;;1.73;0.70;;;20.70;45.90;;;;;;5052861;28;20041;-74
2021/05/24 12:46:57;;;;;;;3.53;0.88;;;20.80;45.90;;;;;;5053931;28;20037;-74
2021/05/24 12:49:39;;;;;;;1.13;0.70;;;20.80;42.80;;;;;;5053373;28;20500;-73